Latest Weather Observations for Coldstream

IDV60901

Issued at 10:01 pm EST Friday 23 June 2017 (issued every 10 minutes, with the page automatically refreshed every 10 minutes)

About weather observations | Map of Melbourne area stations | Latest observations for Melbourne area | Other Formats
Station Details ID: 086383 Name: COLDSTREAM Lat: -37.72 Lon: 145.41 Height: 83.0 m
Data from the previous 72 hours. | See also: Recent months at Coldstream
Date/Time
EST
Temp
°C
App
Temp
°C
Dew
Point
°C
Rel
Hum
%
Delta-T
°C
Wind Press
QNH
hPa
Press
MSL
hPa
Rain since
9am
mm
Dir  Spd
km/h
Gust
km/h
Spd
kts
Gust
kts
23/10:00pm 9.3 7.2 6.7 84 1.2 NNW 7 11 4 6 1015.0 1015.1 0.4
23/09:30pm 9.1 7.0 6.7 85 1.1 NNW 7 11 4 6 1015.1 1015.2 0.4
23/09:00pm 9.7 6.9 6.8 82 1.4 N 11 17 6 9 1014.9 1015.0 0.4
23/08:30pm 9.7 7.4 7.5 86 1.1 N 9 11 5 6 1014.9 1015.0 0.4
23/08:00pm 9.7 7.8 7.6 87 1.0 N 7 9 4 5 1014.9 1015.0 0.4
23/07:30pm 10.5 7.3 6.8 78 1.8 NNW 13 20 7 11 1014.9 1015.0 0.0
23/07:00pm 11.0 7.3 6.2 72 2.3 NNW 15 22 8 12 1014.3 1014.4 0.0
23/06:30pm 11.1 7.0 6.0 71 2.4 NNW 17 32 9 17 1013.9 1014.1 0.0
23/06:00pm 10.9 7.5 5.9 71 2.3 N 13 20 7 11 1013.8 1014.0 0.0
23/05:30pm 10.9 7.1 5.9 71 2.3 NNW 15 24 8 13 1014.1 1014.2 0.0
23/05:00pm 10.9 7.9 5.9 71 2.3 NNW 11 20 6 11 1014.2 1014.3 0.0
23/04:30pm 10.9 7.1 5.9 71 2.3 N 15 22 8 12 1014.2 1014.3 0.0
23/04:00pm 11.1 6.5 5.8 70 2.5 N 19 28 10 15 1014.1 1014.2 0.0
23/03:30pm 12.0 7.2 5.6 65 3.0 N 20 32 11 17 1014.4 1014.5 0.0
23/03:00pm 11.3 7.5 5.8 69 2.6 N 15 24 8 13 1014.4 1014.5 0.0
23/02:30pm 11.4 7.1 5.3 66 2.8 N 17 28 9 15 1014.3 1014.4 0.0
23/02:00pm 12.2 6.9 5.1 62 3.3 N 22 35 12 19 1014.4 1014.5 0.0
23/01:30pm 13.2 7.7 6.1 62 3.4 N 24 37 13 20 1014.6 1014.7 0.0
23/01:00pm 12.9 7.9 6.3 64 3.1 N 22 32 12 17 1015.4 1015.5 0.0
23/12:30pm 12.4 7.3 6.0 65 3.0 N 22 35 12 19 1015.8 1015.9 0.0
23/12:00pm 12.3 7.6 5.9 65 3.0 N 20 33 11 18 1016.8 1016.9 0.0
23/11:30am 12.4 8.8 6.7 68 2.7 N 15 28 8 15 1017.4 1017.5 0.0
23/11:00am 11.3 6.6 6.2 71 2.4 N 20 30 11 16 1018.1 1018.2 0.0
23/10:30am 10.6 5.8 5.6 71 2.3 N 20 32 11 17 1018.6 1018.7 0.0
23/10:00am 10.2 5.5 6.0 75 1.9 N 20 33 11 18 1019.0 1019.1 0.0
23/09:30am 9.4 4.9 5.9 79 1.6 N 19 28 10 15 1019.3 1019.4 0.0
23/09:00am 8.6 5.2 6.1 84 1.1 N 13 20 7 11 1019.4 1019.5 0.0
23/08:30am 7.8 4.3 5.4 85 1.1 N 13 20 7 11 1019.4 1019.5 0.0
23/08:00am 6.6 3.4 4.9 89 0.7 N 11 15 6 8 1019.4 1019.5 0.0
23/07:30am 6.5 3.2 4.8 89 0.7 N 11 15 6 8 1019.3 1019.4 0.0
23/07:00am 6.6 3.3 4.6 87 0.9 N 11 17 6 9 1019.2 1019.3 0.0
23/06:30am 7.1 3.8 4.8 85 1.0 NNW 11 15 6 8 1019.3 1019.4 0.0
23/06:00am 8.2 4.4 5.7 84 1.1 N 15 20 8 11 1019.2 1019.3 0.0
23/05:30am 7.7 4.9 5.2 84 1.1 N 9 15 5 8 1019.2 1019.3 0.0
23/05:00am 7.2 4.0 5.3 88 0.8 N 11 15 6 8 1019.3 1019.4 0.0
23/04:30am 7.5 4.5 5.8 89 0.8 N 11 15 6 8 1019.7 1019.9 0.0
23/04:00am 5.7 4.1 4.7 93 0.4 NNW 2 9 1 5 1020.1 1020.3 0.0
23/03:30am 6.1 3.9 6.0 99 0.0 N 7 13 4 7 1020.3 1020.5 0.0
23/03:00am 3.1 1.5 2.7 97 0.2 CALM 0 0 0 0 1020.6 1020.8 0.0
23/02:30am 3.8 2.3 3.1 95 0.3 CALM 0 6 0 3 1020.8 1021.0 0.0
23/02:00am 4.5 3.1 3.5 93 0.4 CALM 0 0 0 0 1021.0 1021.2 0.0
23/01:30am 5.6 3.9 4.2 91 0.6 NE 2 7 1 4 1021.2 1021.4 0.0
23/01:00am 6.5 5.2 4.2 85 1.0 CALM 0 0 0 0 1021.5 1021.7 0.0
23/12:30am 8.3 5.9 4.5 77 1.7 NE 6 11 3 6 1021.9 1022.1 0.0
23/12:00am 8.5 6.0 4.7 77 1.7 NE 7 11 4 6 1022.3 1022.5 0.0
 
Date/Time
EST
Temp
°C
App
Temp
°C
Dew
Point
°C
Rel
Hum
%
Delta-T
°C
Wind Press
QNH
hPa
Press
MSL
hPa
Rain since
9am
mm
Dir  Spd
km/h
Gust
km/h
Spd
kts
Gust
kts
22/11:30pm 8.4 5.8 4.4 76 1.8 NNE 7 11 4 6 1022.7 1022.9 0.0
22/11:00pm 9.1 6.6 4.7 74 2.0 NE 7 13 4 7 1022.8 1023.0 0.0
22/10:30pm 8.7 6.5 5.3 79 1.5 NNE 6 9 3 5 1023.1 1023.3 0.0
22/10:00pm 9.1 7.0 5.7 79 1.5 NE 6 9 3 5 1023.6 1023.8 0.0
22/09:30pm 6.2 4.7 5.2 93 0.4 NE 2 9 1 5 1023.7 1023.9 0.0
22/09:00pm 6.2 4.9 4.2 87 0.9 CALM 0 0 0 0 1023.9 1024.1 0.0
22/08:30pm 8.3 7.0 4.3 76 1.8 CALM 0 2 0 1 1023.8 1024.0 0.0
22/08:00pm 9.8 7.5 5.0 72 2.2 NNE 6 9 3 5 1024.0 1024.2 0.0
22/07:30pm 10.2 7.8 5.2 71 2.3 NNE 7 13 4 7 1024.1 1024.3 0.0
22/07:00pm 10.3 7.9 5.3 71 2.3 NNE 7 13 4 7 1024.2 1024.4 0.0
22/06:30pm 10.3 7.9 5.3 71 2.3 NNE 7 13 4 7 1024.2 1024.4 0.0
22/06:00pm 10.2 7.9 5.6 73 2.1 NE 7 13 4 7 1024.0 1024.2 0.0
22/05:30pm 10.3 8.0 5.7 73 2.1 NE 7 15 4 8 1024.1 1024.3 0.0
22/05:00pm 10.5 8.3 6.1 74 2.0 NE 7 11 4 6 1024.3 1024.5 0.0
22/04:30pm 10.7 8.5 6.1 73 2.1 NE 7 11 4 6 1024.4 1024.6 0.0
22/04:00pm 11.3 9.1 6.2 71 2.4 NE 7 9 4 5 1024.7 1024.9 0.0
22/03:30pm 11.5 8.4 5.6 67 2.7 NNE 11 17 6 9 1024.9 1025.1 0.0
22/03:00pm 11.6 9.0 5.9 68 2.7 NNE 9 15 5 8 1025.3 1025.5 0.0
22/02:30pm 11.7 9.1 6.0 68 2.7 NNE 9 17 5 9 1025.4 1025.6 0.0
22/02:00pm 11.9 8.3 5.1 63 3.1 N 13 19 7 10 1025.5 1025.7 0.0
22/01:30pm 12.3 10.1 6.1 66 2.9 NNE 7 17 4 9 1025.6 1025.8 0.0
22/01:00pm 12.4 10.5 6.7 68 2.7 NE 6 9 3 5 1025.9 1026.1 0.0
22/12:30pm 12.2 9.6 6.0 66 2.9 NNE 9 11 5 6 1026.2 1026.4 0.0
22/12:00pm 12.5 9.9 6.3 66 2.9 NNE 9 13 5 7 1026.8 1026.9 0.0
22/11:30am 12.1 9.9 6.4 68 2.7 NE 7 11 4 6 1027.5 1027.6 0.0
22/11:00am 10.4 8.8 6.5 77 1.8 ENE 4 7 2 4 1028.1 1028.2 0.0
22/10:30am 8.2 6.2 7.1 93 0.5 ESE 7 9 4 5 1028.3 1028.4 0.0
22/10:00am 7.1 6.0 7.0 99 0.0 E 2 6 1 3 1028.7 1028.8 0.0
22/09:30am 6.1 4.4 6.0 99 0.0 NNE 4 9 2 5 1028.6 1028.7 0.0
22/09:00am 5.1 4.0 5.0 99 0.0 CALM 0 0 0 0 1028.6 1028.7 0.6
22/08:30am 3.1 1.6 3.0 99 0.0 CALM 0 0 0 0 1028.6 1028.7 0.6
22/08:00am 1.9 -0.2 1.8 99 0.0 SSW 2 9 1 5 1028.6 1028.7 0.6
22/07:30am 1.6 -0.2 1.5 99 0.0 CALM 0 0 0 0 1028.8 1028.9 0.6
22/07:00am 1.2 -0.6 1.1 99 0.0 CALM 0 0 0 0 1028.4 1028.5 0.6
22/06:30am 1.7 0.0 1.6 99 0.0 CALM 0 0 0 0 1028.3 1028.4 0.6
22/06:00am 1.6 -0.2 1.5 99 0.0 CALM 0 0 0 0 1028.1 1028.2 0.6
22/05:30am 2.2 0.5 2.1 99 0.0 CALM 0 0 0 0 1028.1 1028.2 0.6
22/05:00am 3.2 1.3 3.1 99 0.0 E 2 6 1 3 1027.8 1027.9 0.6
22/04:30am 4.5 1.9 4.4 99 0.0 SE 7 7 4 4 1027.9 1028.0 0.6
22/04:00am 6.0 3.7 5.9 99 0.0 ESE 7 11 4 6 1027.9 1028.0 0.6
22/03:30am 7.5 6.5 7.4 99 0.0 NE 2 7 1 4 1027.9 1028.0 0.6
22/03:00am 7.5 6.5 7.4 99 0.0 E 2 7 1 4 1028.1 1028.2 0.6
22/02:30am 7.8 7.3 7.7 99 0.0 CALM 0 7 0 4 1028.3 1028.4 0.6
22/02:00am 8.0 7.1 7.9 99 0.0 NNE 2 7 1 4 1028.3 1028.4 0.6
22/01:30am 8.2 6.1 8.1 99 0.0 ESE 9 15 5 8 1028.2 1028.3 0.6
22/01:00am 7.8 6.5 7.7 99 0.0 SSE 4 7 2 4 1028.4 1028.5 0.6
22/12:30am 8.0 7.5 7.9 99 0.0 CALM 0 0 0 0 1028.6 1028.7 0.6
22/12:00am 8.2 7.8 8.1 99 0.0 CALM 0 0 0 0 1028.9 1029.0 0.6
 
Date/Time
EST
Temp
°C
App
Temp
°C
Dew
Point
°C
Rel
Hum
%
Delta-T
°C
Wind Press
QNH
hPa
Press
MSL
hPa
Rain since
9am
mm
Dir  Spd
km/h
Gust
km/h
Spd
kts
Gust
kts
21/11:30pm 8.4 6.9 8.3 99 0.0 SSW 6 9 3 5 1028.9 1029.0 0.6
21/11:00pm 8.0 6.2 7.9 99 0.0 ESE 7 11 4 6 1029.0 1029.1 0.6
21/10:30pm 8.8 8.5 8.7 99 0.0 CALM 0 0 0 0 1029.2 1029.3 0.6
21/10:00pm 8.9 8.6 8.8 99 0.0 CALM 0 6 0 3 1029.3 1029.4 0.6
21/09:30pm 9.0 7.4 8.9 99 0.0 SE 7 9 4 5 1029.4 1029.5 0.6
21/09:00pm 8.8 7.2 8.7 99 0.0 ESE 7 9 4 5 1029.3 1029.4 0.6
21/08:30pm 8.9 8.6 8.8 99 0.0 CALM 0 0 0 0 1029.4 1029.5 0.6
21/08:00pm 9.2 9.0 9.1 99 0.0 CALM 0 0 0 0 1029.4 1029.5 0.6
21/07:30pm 9.5 9.4 9.4 99 0.0 CALM 0 0 0 0 1029.3 1029.4 0.6
21/07:00pm 9.4 9.3 9.3 99 0.0 CALM 0 0 0 0 1029.1 1029.2 0.6
21/06:30pm 9.4 9.3 9.3 99 0.0 CALM 0 0 0 0 1028.8 1028.9 0.6
21/06:00pm 9.7 9.5 9.2 97 0.2 CALM 0 0 0 0 1028.5 1028.6 0.6
21/05:30pm 10.4 10.3 9.6 95 0.4 CALM 0 0 0 0 1028.5 1028.6 0.6
21/05:00pm 10.8 10.8 9.9 94 0.5 CALM 0 0 0 0 1028.2 1028.3 0.6
21/04:30pm 11.5 11.6 10.1 91 0.7 CALM 0 0 0 0 1028.3 1028.4 0.6
21/04:00pm 11.9 12.0 10.1 89 0.9 CALM 0 0 0 0 1028.2 1028.3 0.6
21/03:30pm 11.8 11.9 10.0 89 0.9 CALM 0 0 0 0 1028.4 1028.5 0.6
21/03:00pm 11.9 11.9 9.8 87 1.1 CALM 0 0 0 0 1028.5 1028.6 0.4
21/02:30pm 11.9 12.0 10.0 88 1.0 CALM 0 0 0 0 1028.2 1028.3 0.4
21/02:00pm 11.8 11.6 10.4 91 0.7 N 2 7 1 4 1028.3 1028.4 0.4
21/01:30pm 11.8 12.0 10.5 92 0.7 CALM 0 6 0 3 1028.3 1028.4 0.4
21/01:00pm 11.3 11.5 10.7 96 0.3 CALM 0 0 0 0 1028.4 1028.5 0.4
21/12:30pm 10.9 11.1 10.7 99 0.1 CALM 0 0 0 0 1028.6 1028.7 0.4
21/12:00pm 10.2 10.3 10.1 99 0.1 CALM 0 0 0 0 1028.9 1029.0 0.4
21/11:30am 10.1 9.8 10.0 99 0.1 NNE 2 7 1 4 1029.2 1029.3 0.4
21/11:00am 10.0 8.9 9.9 99 0.1 NNE 6 7 3 4 1029.4 1029.5 0.4
21/10:30am 9.5 8.6 9.4 99 0.0 NE 4 9 2 5 1029.5 1029.6 0.2
21/10:00am 9.3 8.0 9.2 99 0.0 NNE 6 7 3 4 1029.6 1029.8 0.0
21/09:30am 9.1 8.1 9.0 99 0.0 NNE 4 7 2 4 1029.3 1029.4 0.0
21/09:00am 9.2 9.0 9.1 99 0.0 CALM 0 0 0 0 1028.9 1029.0 0.8
21/08:30am 9.0 8.8 8.9 99 0.0 CALM 0 0 0 0 1028.6 1028.7 0.6
21/08:00am 8.9 8.6 8.5 97 0.2 CALM 0 0 0 0 1028.2 1028.3 0.4
21/07:30am 9.0 8.6 8.2 95 0.4 CALM 0 0 0 0 1027.9 1028.0 0.4
21/07:00am 9.1 8.6 8.0 93 0.5 CALM 0 0 0 0 1027.6 1027.7 0.2
21/06:30am 9.3 8.9 8.1 92 0.6 CALM 0 0 0 0 1027.1 1027.2 0.2
21/06:00am 9.1 8.7 8.2 94 0.4 CALM 0 0 0 0 1026.7 1026.8 0.2
21/05:30am 9.2 8.7 8.0 92 0.6 CALM 0 0 0 0 1026.4 1026.6 0.2
21/05:00am 9.7 9.1 7.6 87 1.0 CALM 0 0 0 0 1026.1 1026.3 0.2
21/04:30am 10.2 7.9 7.3 82 1.4 NNE 9 13 5 7 1025.8 1026.0 0.2
21/04:00am 10.0 9.1 7.6 85 1.1 NNE 2 9 1 5 1025.9 1026.1 0.2
21/03:30am 10.2 8.4 7.8 85 1.2 NNE 7 11 4 6 1026.0 1026.2 0.2
21/03:00am 9.1 7.6 9.0 99 0.0 NNE 7 13 4 7 1026.0 1026.2 0.2
21/02:30am 5.9 4.2 5.8 99 0.0 ESE 4 7 2 4 1025.9 1026.1 0.2
21/02:00am 5.0 2.5 4.9 99 0.0 E 7 11 4 6 1025.9 1026.1 0.2
21/01:30am 3.9 2.2 3.8 99 0.0 ESE 2 7 1 4 1025.9 1026.1 0.2
21/01:00am 3.4 2.0 3.3 99 0.0 CALM 0 0 0 0 1025.8 1026.0 0.2
21/12:30am 3.7 2.3 3.6 99 0.0 CALM 0 0 0 0 1026.0 1026.2 0.2
21/12:00am 2.9 1.3 2.5 97 0.2 CALM 0 0 0 0 1026.2 1026.4 0.2
 
Date/Time
EST
Temp
°C
App
Temp
°C
Dew
Point
°C
Rel
Hum
%
Delta-T
°C
Wind Press
QNH
hPa
Press
MSL
hPa
Rain since
9am
mm
Dir  Spd
km/h
Gust
km/h
Spd
kts
Gust
kts
20/11:30pm 3.1 0.7 2.2 94 0.4 ENE 4 7 2 4 1026.2 1026.4 0.2
20/11:00pm 3.6 1.1 1.6 87 0.8 NE 4 9 2 5 1026.3 1026.5 0.2
20/10:30pm 8.1 6.1 6.9 92 0.6 NNE 7 15 4 8 1026.3 1026.5 0.2

Latest Capital City Observations: Canberra | Sydney | Melbourne | Brisbane | Adelaide | Perth | Hobart | Darwin

Other Formats:

Comma delimited format used in spreadsheet applications
http://www.bom.gov.au/fwo/IDV60901/IDV60901.94864.axf

JavaScript Object Notation format (JSON) in row-major order
http://www.bom.gov.au/fwo/IDV60901/IDV60901.94864.json